createdAt,value
2023-03-05T00:00:43.448Z,13.42
2023-03-05T00:03:12.625Z,13.52
2023-03-05T00:05:40.619Z,13.69
2023-03-05T00:08:08.608Z,13.45
2023-03-05T00:10:36.356Z,13.81
2023-03-05T00:13:04.639Z,14.03
2023-03-05T00:15:32.394Z,13.19
2023-03-05T00:18:00.256Z,13.66
2023-03-05T00:20:29.426Z,12.99
2023-03-05T00:22:57.190Z,13.38
2023-03-05T00:25:24.900Z,12.82
2023-03-05T00:27:52.640Z,13.04
2023-03-05T00:30:20.630Z,13.43
2023-03-05T00:32:48.404Z,12.91
2023-03-05T00:35:16.356Z,13.52
2023-03-05T00:37:45.485Z,13.43
2023-03-05T00:40:13.636Z,12.99
2023-03-05T00:42:41.473Z,12.47
2023-03-05T00:45:10.926Z,12.71
2023-03-05T00:47:39.307Z,12.51
2023-03-05T00:50:08.686Z,11.85
2023-03-05T00:52:36.443Z,12.14
2023-03-05T00:55:06.407Z,12.06
2023-03-05T00:57:34.372Z,12.01
2023-03-05T01:00:02.187Z,12.52
2023-03-05T01:02:29.958Z,12.73
2023-03-05T01:04:58.759Z,12.34
2023-03-05T01:07:26.913Z,12.73
2023-03-05T01:09:54.677Z,12.32
2023-03-05T01:12:23.834Z,11.58
2023-03-05T01:14:51.608Z,12.18
2023-03-05T01:17:19.375Z,11.76
2023-03-05T01:19:47.164Z,12.39
2023-03-05T01:22:15.080Z,11.46
2023-03-05T01:24:42.866Z,11.75
2023-03-05T01:27:10.756Z,11.66
2023-03-05T01:29:39.876Z,11.63
2023-03-05T01:32:07.799Z,11.93
2023-03-05T01:34:37.754Z,11.84
2023-03-05T01:37:05.750Z,12.01
2023-03-05T01:39:33.461Z,12.45
2023-03-05T01:42:01.372Z,12.67
2023-03-05T01:44:31.336Z,12.70
2023-03-05T01:47:01.184Z,12.57
2023-03-05T01:49:31.857Z,12.66
2023-03-05T01:52:05.041Z,11.96
2023-03-05T01:54:36.272Z,12.49
2023-03-05T01:57:10.185Z,12.27
2023-03-05T01:59:39.821Z,12.58
2023-03-05T02:02:09.264Z,12.46
2023-03-05T02:04:43.643Z,13.11
2023-03-05T02:07:12.743Z,12.70
2023-03-05T02:09:41.109Z,11.73
2023-03-05T02:12:11.486Z,12.11
2023-03-05T02:14:42.245Z,11.68
2023-03-05T02:17:13.308Z,10.77
2023-03-05T02:19:48.564Z,11.57
2023-03-05T02:22:18.362Z,12.18
2023-03-05T02:24:46.275Z,12.08
2023-03-05T02:27:14.907Z,11.91
2023-03-05T02:29:46.021Z,12.11
2023-03-05T02:32:15.165Z,11.55
2023-03-05T02:34:42.960Z,11.30
2023-03-05T02:37:10.798Z,11.93
2023-03-05T02:39:40.891Z,12.02
2023-03-05T02:42:09.933Z,12.19
2023-03-05T02:44:38.520Z,11.66
2023-03-05T02:47:06.833Z,12.11
2023-03-05T02:49:35.752Z,12.22
2023-03-05T02:52:04.291Z,12.48
2023-03-05T02:54:32.183Z,12.94
2023-03-05T02:57:01.373Z,11.52
2023-03-05T02:59:29.278Z,12.22
2023-03-05T03:01:57.182Z,12.66
2023-03-05T03:04:25.870Z,11.78
2023-03-05T03:06:53.674Z,12.19
2023-03-05T03:09:21.817Z,11.23
2023-03-05T03:11:49.587Z,11.76
2023-03-05T03:14:18.698Z,11.57
2023-03-05T03:16:46.556Z,11.60
2023-03-05T03:19:15.076Z,11.67
2023-03-05T03:21:42.865Z,11.49
2023-03-05T03:24:10.705Z,11.61
2023-03-05T03:26:38.539Z,11.44
2023-03-05T03:29:06.305Z,11.84
2023-03-05T03:31:35.488Z,11.83
2023-03-05T03:34:03.229Z,12.11
2023-03-05T03:36:32.035Z,11.98
2023-03-05T03:38:59.781Z,11.33
2023-03-05T03:41:27.530Z,11.99
2023-03-05T03:43:55.274Z,12.32
2023-03-05T03:46:23.331Z,11.92
2023-03-05T03:48:52.767Z,12.19
2023-03-05T03:51:20.580Z,11.60
2023-03-05T03:53:48.504Z,12.33
2023-03-05T03:56:16.323Z,12.94
2023-03-05T03:58:44.323Z,11.81
2023-03-05T04:01:12.265Z,11.78
2023-03-05T04:03:39.975Z,11.65
2023-03-05T04:06:09.575Z,12.03
2023-03-05T04:08:37.719Z,11.62
2023-03-05T04:11:06.733Z,11.53
2023-03-05T04:13:34.543Z,11.28
2023-03-05T04:16:02.602Z,12.12
2023-03-05T04:18:32.484Z,11.38
2023-03-05T04:21:00.394Z,11.86
2023-03-05T04:23:29.546Z,12.08
2023-03-05T04:25:57.287Z,11.84
2023-03-05T04:28:25.092Z,12.15
2023-03-05T04:30:53.225Z,12.36
2023-03-05T04:33:21.155Z,12.19
2023-03-05T04:35:49.094Z,12.67
2023-03-05T04:38:16.839Z,11.91
2023-03-05T04:40:46.564Z,11.61
2023-03-05T04:43:14.677Z,11.85
2023-03-05T04:45:44.162Z,11.40
2023-03-05T04:48:12.714Z,11.68
2023-03-05T04:50:40.606Z,12.08
2023-03-05T04:53:08.394Z,12.21
2023-03-05T04:55:36.110Z,11.76
2023-03-05T04:58:05.387Z,11.38
2023-03-05T05:00:33.199Z,11.37
2023-03-05T05:03:01.076Z,11.82
2023-03-05T05:05:29.976Z,11.78
2023-03-05T05:07:58.580Z,11.40
2023-03-05T05:10:27.431Z,11.31
2023-03-05T05:12:55.324Z,11.86
2023-03-05T05:15:24.973Z,11.72
2023-03-05T05:17:52.816Z,12.22
2023-03-05T05:20:20.682Z,11.53
2023-03-05T05:22:48.470Z,11.46
2023-03-05T05:25:16.298Z,11.49
2023-03-05T05:27:44.323Z,11.84
2023-03-05T05:30:13.074Z,12.17
2023-03-05T05:32:42.527Z,11.40
2023-03-05T05:35:11.771Z,11.38
2023-03-05T05:37:39.554Z,10.93
2023-03-05T05:40:09.495Z,11.77
2023-03-05T05:42:37.301Z,11.19
2023-03-05T05:45:06.051Z,11.47
2023-03-05T05:47:33.917Z,11.19
2023-03-05T05:50:03.112Z,10.98
2023-03-05T05:52:31.083Z,11.18
2023-03-05T05:54:58.841Z,11.43
2023-03-05T05:57:26.612Z,11.88
2023-03-05T05:59:54.383Z,11.73
2023-03-05T06:02:22.138Z,11.18
2023-03-05T06:04:49.967Z,11.77
2023-03-05T06:07:19.017Z,11.59
2023-03-05T06:09:46.822Z,10.82
2023-03-05T06:12:14.572Z,11.16
2023-03-05T06:14:42.324Z,11.57
2023-03-05T06:17:12.901Z,11.00
2023-03-05T06:19:42.632Z,11.28
2023-03-05T06:22:10.496Z,11.22
2023-03-05T06:24:40.232Z,11.15
2023-03-05T06:27:08.136Z,11.55
2023-03-05T06:29:35.928Z,11.58
2023-03-05T06:32:03.733Z,11.78
2023-03-05T06:34:31.579Z,12.06
2023-03-05T06:36:59.370Z,11.63
2023-03-05T06:39:27.097Z,11.63
2023-03-05T06:41:56.284Z,12.18
2023-03-05T06:44:24.116Z,11.51
2023-03-05T06:46:51.876Z,11.46
2023-03-05T06:49:19.860Z,11.80
2023-03-05T06:51:47.602Z,11.33
2023-03-05T06:54:18.177Z,11.85
2023-03-05T06:57:02.116Z,11.84
2023-03-05T06:59:31.342Z,11.52
2023-03-05T07:01:59.193Z,10.28
2023-03-05T07:04:27.021Z,10.11
2023-03-05T07:06:55.738Z,9.93
2023-03-05T07:09:23.494Z,9.91
2023-03-05T07:11:51.246Z,10.67
2023-03-05T07:14:18.994Z,10.97
2023-03-05T07:16:48.088Z,11.15
2023-03-05T07:19:15.908Z,11.30
2023-03-05T07:21:43.740Z,11.99
2023-03-05T07:24:13.610Z,11.60
2023-03-05T07:26:41.423Z,11.57
2023-03-05T07:29:09.177Z,11.34
2023-03-05T07:31:36.980Z,10.56
2023-03-05T07:34:06.577Z,11.59
2023-03-05T07:36:35.438Z,11.56
2023-03-05T07:39:04.733Z,11.59
2023-03-05T07:41:32.465Z,12.08
2023-03-05T07:44:00.344Z,11.28
2023-03-05T07:46:30.875Z,11.36
2023-03-05T07:48:58.707Z,11.34
2023-03-05T07:51:28.774Z,11.69
2023-03-05T07:53:58.562Z,11.35
2023-03-05T07:56:31.595Z,10.17
2023-03-05T07:58:59.943Z,11.76
2023-03-05T08:01:27.846Z,12.15
2023-03-05T08:03:55.601Z,12.17
2023-03-05T08:06:23.521Z,12.68
2023-03-05T08:08:52.681Z,12.83
2023-03-05T08:11:20.656Z,11.82
2023-03-05T08:13:48.464Z,11.58
2023-03-05T08:16:18.205Z,12.03
2023-03-05T08:18:46.588Z,12.08
2023-03-05T08:21:19.363Z,11.64
2023-03-05T08:23:47.635Z,12.11
2023-03-05T08:26:18.680Z,11.48
2023-03-05T08:28:46.582Z,11.24
2023-03-05T08:31:16.376Z,12.56
2023-03-05T08:33:44.441Z,11.66
2023-03-05T08:36:13.265Z,12.30
2023-03-05T08:38:41.942Z,11.84
2023-03-05T08:41:10.119Z,11.67
2023-03-05T08:43:39.590Z,12.15
2023-03-05T08:46:07.736Z,12.10
2023-03-05T08:48:35.627Z,12.46
2023-03-05T08:51:07.906Z,12.53
2023-03-05T08:53:35.773Z,11.91
2023-03-05T08:56:03.926Z,12.23
2023-03-05T08:58:32.423Z,12.17
2023-03-05T09:01:01.711Z,12.28
2023-03-05T09:03:29.719Z,12.69
2023-03-05T09:06:01.465Z,12.74
2023-03-05T09:08:29.587Z,12.68
2023-03-05T09:10:57.566Z,13.12
2023-03-05T09:13:25.528Z,12.52
2023-03-05T09:15:56.801Z,13.33
2023-03-05T09:18:26.819Z,12.74
2023-03-05T09:20:55.547Z,12.86
2023-03-05T09:23:24.011Z,12.33
2023-03-05T09:25:52.530Z,12.89
2023-03-05T09:28:20.529Z,12.26
2023-03-05T09:30:48.615Z,12.79
2023-03-05T09:33:16.657Z,12.17
2023-03-05T09:35:45.873Z,11.90
2023-03-05T09:38:13.674Z,12.61
2023-03-05T09:40:50.285Z,12.71
2023-03-05T09:43:31.593Z,13.29
2023-03-05T09:46:12.207Z,13.55
2023-03-05T09:48:50.628Z,12.35
2023-03-05T09:51:25.282Z,12.93
2023-03-05T09:54:03.053Z,11.86
2023-03-05T09:56:36.119Z,12.55
2023-03-05T09:59:13.649Z,12.53
2023-03-05T10:01:45.483Z,12.22
2023-03-05T10:04:17.494Z,12.39
2023-03-05T10:06:51.783Z,12.35
2023-03-05T10:09:40.068Z,11.73
2023-03-05T10:12:13.745Z,12.09
2023-03-05T10:14:42.831Z,11.89
2023-03-05T10:17:41.509Z,11.48
2023-03-05T10:20:36.379Z,11.02
2023-03-05T10:23:24.722Z,11.72
2023-03-05T10:26:27.306Z,11.78
2023-03-05T10:29:06.007Z,12.45
2023-03-05T10:31:53.887Z,12.07
2023-03-05T10:34:49.668Z,12.92
2023-03-05T10:37:38.455Z,13.00
2023-03-05T10:40:19.663Z,13.22
2023-03-05T10:42:57.562Z,13.25
2023-03-05T10:45:30.307Z,14.12
2023-03-05T10:48:02.500Z,14.03
2023-03-05T10:50:36.893Z,13.31
2023-03-05T10:53:14.979Z,13.01
2023-03-05T10:55:44.318Z,12.62
2023-03-05T10:58:13.660Z,12.37
2023-03-05T11:00:42.378Z,13.03
2023-03-05T11:03:11.909Z,12.54
2023-03-05T11:05:46.229Z,12.66
2023-03-05T11:08:33.190Z,12.77
2023-03-05T11:11:12.487Z,14.41
2023-03-05T11:13:50.957Z,13.41
2023-03-05T11:16:21.283Z,13.33
2023-03-05T11:18:49.342Z,13.21
2023-03-05T11:21:23.926Z,13.01
2023-03-05T11:24:13.668Z,13.69
2023-03-05T11:26:50.305Z,14.15
2023-03-05T11:29:22.229Z,14.32
2023-03-05T11:31:50.562Z,15.38
2023-03-05T11:34:35.252Z,14.43
2023-03-05T11:37:06.558Z,13.71
2023-03-05T11:39:38.381Z,14.40
2023-03-05T11:42:12.855Z,13.63
2023-03-05T11:44:47.933Z,14.15
2023-03-05T11:47:24.900Z,13.35
2023-03-05T11:50:02.699Z,13.97
2023-03-05T11:52:35.183Z,14.16
2023-03-05T11:55:08.066Z,14.55
2023-03-05T11:57:45.262Z,13.56
2023-03-05T12:00:17.123Z,13.92
2023-03-05T12:02:45.628Z,13.92
2023-03-05T12:05:16.768Z,13.37
2023-03-05T12:07:49.915Z,13.86
2023-03-05T12:10:19.831Z,13.66
2023-03-05T12:12:54.193Z,14.63
2023-03-05T12:15:49.187Z,15.17
2023-03-05T12:18:28.019Z,13.84
2023-03-05T12:21:05.674Z,15.11
2023-03-05T12:23:46.637Z,15.77
2023-03-05T12:26:14.553Z,15.18
2023-03-05T12:28:57.935Z,15.39
2023-03-05T12:31:37.974Z,16.12
2023-03-05T12:34:48.174Z,16.54
2023-03-05T12:37:54.937Z,16.00
2023-03-05T12:40:28.271Z,15.82
2023-03-05T12:42:58.090Z,15.74
2023-03-05T12:45:39.293Z,15.81
2023-03-05T12:48:35.905Z,15.12
2023-03-05T12:51:03.936Z,14.89
2023-03-05T12:53:31.801Z,14.42
2023-03-05T12:56:07.110Z,14.30
2023-03-05T12:58:40.785Z,15.03
2023-03-05T13:01:30.542Z,14.29
2023-03-05T13:04:01.441Z,14.14
2023-03-05T13:06:33.537Z,14.46
2023-03-05T13:09:03.454Z,13.92
2023-03-05T13:11:34.353Z,14.19
2023-03-05T13:14:02.686Z,15.65
2023-03-05T13:16:38.801Z,15.37
2023-03-05T13:19:17.454Z,15.05
2023-03-05T13:21:45.732Z,15.21
2023-03-05T13:24:18.106Z,14.24
2023-03-05T13:26:46.102Z,14.78
2023-03-05T13:29:15.481Z,14.14
2023-03-05T13:31:46.905Z,14.45
2023-03-05T13:34:22.094Z,15.47
2023-03-05T13:36:56.257Z,14.99
2023-03-05T13:39:27.837Z,15.66
2023-03-05T13:41:58.839Z,15.96
2023-03-05T13:44:29.680Z,16.61
2023-03-05T13:47:11.153Z,17.62
2023-03-05T13:49:39.406Z,18.31
2023-03-05T13:52:07.666Z,18.62
2023-03-05T13:54:35.716Z,18.22
2023-03-05T13:57:05.643Z,18.40
2023-03-05T13:59:35.389Z,18.05
2023-03-05T14:02:06.296Z,18.11
2023-03-05T14:04:38.562Z,18.64
2023-03-05T14:07:08.930Z,19.19
2023-03-05T14:09:47.349Z,17.84
2023-03-05T14:12:28.173Z,18.69
2023-03-05T14:14:56.998Z,18.27
2023-03-05T14:17:36.852Z,19.31
2023-03-05T14:20:19.578Z,17.67
2023-03-05T14:22:49.003Z,15.71
2023-03-05T14:25:36.298Z,17.16
2023-03-05T14:28:06.022Z,17.48
2023-03-05T14:30:36.088Z,17.08
2023-03-05T14:33:04.853Z,17.94
2023-03-05T14:35:34.389Z,17.70
2023-03-05T14:38:02.437Z,18.29
2023-03-05T14:40:32.818Z,17.29
2023-03-05T14:43:01.491Z,18.11
2023-03-05T14:45:30.984Z,20.00
2023-03-05T14:48:00.633Z,19.79
2023-03-05T14:50:31.434Z,17.14
2023-03-05T14:53:03.851Z,17.23
2023-03-05T14:55:33.538Z,17.41
2023-03-05T14:58:05.328Z,17.62
2023-03-05T15:00:33.933Z,16.52
2023-03-05T15:03:02.119Z,16.09
2023-03-05T15:05:30.357Z,15.94
2023-03-05T15:07:58.268Z,15.80
2023-03-05T15:10:27.595Z,17.17
2023-03-05T15:12:55.445Z,16.58
2023-03-05T15:15:23.954Z,15.56
2023-03-05T15:17:54.904Z,15.72
2023-03-05T15:20:24.742Z,15.24
2023-03-05T15:22:52.776Z,15.84
2023-03-05T15:25:22.101Z,15.83
2023-03-05T15:27:51.757Z,16.47
2023-03-05T15:30:23.777Z,15.47
2023-03-05T15:32:52.509Z,15.84
2023-03-05T15:35:20.870Z,16.08
2023-03-05T15:37:48.758Z,15.92
2023-03-05T15:40:16.702Z,15.00
2023-03-05T15:42:45.012Z,14.90
2023-03-05T15:45:14.603Z,15.63
2023-03-05T15:47:42.605Z,14.64
2023-03-05T15:50:11.892Z,14.63
2023-03-05T15:52:39.731Z,14.29
2023-03-05T15:55:08.699Z,14.22
2023-03-05T15:57:37.958Z,14.88
2023-03-05T16:00:08.047Z,15.55
2023-03-05T16:02:39.359Z,15.02
2023-03-05T16:05:08.536Z,14.81
2023-03-05T16:07:40.070Z,14.61
2023-03-05T16:10:11.986Z,13.72
2023-03-05T16:12:43.007Z,15.00
2023-03-05T16:15:12.954Z,14.72
2023-03-05T16:17:45.270Z,14.21
2023-03-05T16:20:14.400Z,13.99
2023-03-05T16:22:42.351Z,14.10
2023-03-05T16:25:10.567Z,14.05
2023-03-05T16:27:38.379Z,13.62
2023-03-05T16:30:07.723Z,13.59
2023-03-05T16:32:35.592Z,12.84
2023-03-05T16:35:05.561Z,12.33
2023-03-05T16:37:33.660Z,12.77
2023-03-05T16:40:01.594Z,12.54
2023-03-05T16:42:29.588Z,13.10
2023-03-05T16:44:58.435Z,13.05
2023-03-05T16:47:26.576Z,13.72
2023-03-05T16:49:54.497Z,13.74
2023-03-05T16:52:24.064Z,13.91
2023-03-05T16:54:51.913Z,14.21
2023-03-05T16:57:21.904Z,13.10
2023-03-05T16:59:49.716Z,13.33
2023-03-05T17:02:17.487Z,13.39
2023-03-05T17:04:46.041Z,13.43
2023-03-05T17:07:13.966Z,13.29
2023-03-05T17:09:44.388Z,12.90
2023-03-05T17:12:12.236Z,13.13
2023-03-05T17:14:40.011Z,12.62
2023-03-05T17:17:07.887Z,13.14
2023-03-05T17:19:35.698Z,13.28
2023-03-05T17:22:03.848Z,13.04
2023-03-05T17:24:33.007Z,12.17
2023-03-05T17:27:02.165Z,11.48
2023-03-05T17:29:30.664Z,11.98
2023-03-05T17:31:58.481Z,11.90
2023-03-05T17:34:36.075Z,11.42
2023-03-05T17:37:05.330Z,11.74
2023-03-05T17:39:33.530Z,11.29
2023-03-05T17:42:02.793Z,11.34
2023-03-05T17:44:30.750Z,11.59
2023-03-05T17:46:58.521Z,12.27
2023-03-05T17:49:26.360Z,12.25
2023-03-05T17:51:54.233Z,11.81
2023-03-05T17:54:22.122Z,12.16
2023-03-05T17:56:49.899Z,12.50
2023-03-05T17:59:19.134Z,12.41
2023-03-05T18:01:47.049Z,12.31
2023-03-05T18:04:15.210Z,12.32
2023-03-05T18:06:43.025Z,11.85
2023-03-05T18:09:10.803Z,12.30
2023-03-05T18:11:39.028Z,11.77
2023-03-05T18:14:06.776Z,12.74
2023-03-05T18:16:36.463Z,12.02
2023-03-05T18:19:04.636Z,12.32
2023-03-05T18:21:32.667Z,12.47
2023-03-05T18:24:00.577Z,12.78
2023-03-05T18:26:28.341Z,13.10
2023-03-05T18:28:56.465Z,12.80
2023-03-05T18:31:24.182Z,12.84
2023-03-05T18:33:53.356Z,12.75
2023-03-05T18:36:21.086Z,12.41
2023-03-05T18:38:48.807Z,12.87
2023-03-05T18:41:21.514Z,13.24
2023-03-05T18:43:50.431Z,13.45
2023-03-05T18:46:18.774Z,13.02
2023-03-05T18:48:47.935Z,12.75
2023-03-05T18:51:19.027Z,13.19
2023-03-05T18:53:47.122Z,12.94
2023-03-05T18:56:15.089Z,13.32
2023-03-05T18:58:42.909Z,13.64
2023-03-05T19:01:11.255Z,13.39
2023-03-05T19:03:39.023Z,13.36
2023-03-05T19:06:07.805Z,13.52
2023-03-05T19:08:37.513Z,13.69
2023-03-05T19:11:15.952Z,13.31
2023-03-05T19:13:48.785Z,13.34
2023-03-05T19:16:18.293Z,13.40
2023-03-05T19:18:57.158Z,13.48
2023-03-05T19:21:25.088Z,13.55
2023-03-05T19:23:54.226Z,13.79
2023-03-05T19:26:21.991Z,13.67
2023-03-05T19:28:49.874Z,13.50
2023-03-05T19:31:17.785Z,13.61
2023-03-05T19:33:45.610Z,13.96
2023-03-05T19:36:14.089Z,13.73
2023-03-05T19:38:42.934Z,13.34
2023-03-05T19:41:13.108Z,11.95
2023-03-05T19:43:41.206Z,12.18
2023-03-05T19:46:09.927Z,12.15
2023-03-05T19:48:39.198Z,10.62
2023-03-05T19:51:10.333Z,9.74
2023-03-05T19:53:38.427Z,10.59
2023-03-05T19:56:07.603Z,10.51
2023-03-05T19:58:37.854Z,11.12
2023-03-05T20:01:10.582Z,10.00
2023-03-05T20:03:38.987Z,11.17
2023-03-05T20:06:07.910Z,11.09
2023-03-05T20:08:35.998Z,10.98
2023-03-05T20:11:03.966Z,10.62
2023-03-05T20:13:31.898Z,10.80
2023-03-05T20:16:01.046Z,10.58
2023-03-05T20:18:28.920Z,10.54
2023-03-05T20:20:58.782Z,10.10
2023-03-05T20:23:26.591Z,9.99
2023-03-05T20:25:54.704Z,9.92
2023-03-05T20:28:25.942Z,9.91
2023-03-05T20:30:57.692Z,9.74
2023-03-05T20:33:28.200Z,9.97
2023-03-05T20:35:56.737Z,10.14
2023-03-05T20:38:26.008Z,11.67
2023-03-05T20:40:55.579Z,11.16
2023-03-05T20:43:24.438Z,11.28
2023-03-05T20:45:53.639Z,10.97
2023-03-05T20:48:21.763Z,10.81
2023-03-05T20:50:50.878Z,11.28
2023-03-05T20:53:19.142Z,11.83
2023-03-05T20:55:47.195Z,11.71
2023-03-05T20:58:15.130Z,11.66
2023-03-05T21:00:43.460Z,11.92
2023-03-05T21:03:11.353Z,12.34
2023-03-05T21:05:39.390Z,11.22
2023-03-05T21:08:08.604Z,10.55
2023-03-05T21:10:36.307Z,10.52
2023-03-05T21:13:04.038Z,11.49
2023-03-05T21:15:31.975Z,11.88
2023-03-05T21:18:00.256Z,12.02
2023-03-05T21:20:30.194Z,11.86
2023-03-05T21:22:58.569Z,11.13
2023-03-05T21:25:29.087Z,11.82
2023-03-05T21:27:59.388Z,11.53
2023-03-05T21:30:31.438Z,11.44
2023-03-05T21:32:59.668Z,11.69
2023-03-05T21:35:27.962Z,11.55
2023-03-05T21:37:55.737Z,11.47
2023-03-05T21:40:23.617Z,11.52
2023-03-05T21:42:52.895Z,11.46
2023-03-05T21:45:22.646Z,11.65
2023-03-05T21:47:52.099Z,11.77
2023-03-05T21:50:21.238Z,11.58
2023-03-05T21:52:49.053Z,11.69
2023-03-05T21:55:18.842Z,11.84
2023-03-05T21:57:47.040Z,11.78
2023-03-05T22:00:18.127Z,11.78
2023-03-05T22:02:46.582Z,12.21
2023-03-05T22:05:15.564Z,11.97
2023-03-05T22:07:44.368Z,12.39
2023-03-05T22:10:13.784Z,12.36
2023-03-05T22:12:53.228Z,12.33
2023-03-05T22:15:23.194Z,11.71
2023-03-05T22:17:51.036Z,12.09
2023-03-05T22:20:19.637Z,12.19
2023-03-05T22:22:47.492Z,12.36
2023-03-05T22:25:16.502Z,12.32
2023-03-05T22:27:44.908Z,12.12
2023-03-05T22:30:14.019Z,11.87
2023-03-05T22:32:43.282Z,12.31
2023-03-05T22:35:13.944Z,12.25
2023-03-05T22:37:42.315Z,12.06
2023-03-05T22:40:14.533Z,12.11
2023-03-05T22:42:42.418Z,12.44
2023-03-05T22:45:11.131Z,12.33
2023-03-05T22:47:38.981Z,12.11
2023-03-05T22:50:09.337Z,12.22
2023-03-05T22:52:37.082Z,11.84
2023-03-05T22:55:05.588Z,12.24
2023-03-05T22:57:33.990Z,12.25
2023-03-05T23:00:01.894Z,12.03
2023-03-05T23:02:29.647Z,12.31
2023-03-05T23:05:00.366Z,12.32
2023-03-05T23:07:31.541Z,12.01
2023-03-05T23:10:01.920Z,10.60
2023-03-05T23:12:32.317Z,11.31
2023-03-05T23:15:01.261Z,11.21
2023-03-05T23:17:29.000Z,11.57
2023-03-05T23:19:56.785Z,11.87
2023-03-05T23:22:24.643Z,11.51
2023-03-05T23:24:54.021Z,11.59
2023-03-05T23:27:21.805Z,11.20
2023-03-05T23:29:58.966Z,11.33
2023-03-05T23:32:29.324Z,11.32
2023-03-05T23:34:57.539Z,11.52
2023-03-05T23:37:25.340Z,11.30
2023-03-05T23:39:54.471Z,10.99
2023-03-05T23:42:22.348Z,11.13
2023-03-05T23:44:50.093Z,11.30
2023-03-05T23:47:17.839Z,10.58
2023-03-05T23:49:45.605Z,10.37
2023-03-05T23:52:13.393Z,10.76
2023-03-05T23:54:41.138Z,11.09
2023-03-05T23:57:10.260Z,11.14
2023-03-05T23:59:38.076Z,11.45
